Scroll down
FLIGHT INFORMATION
Federal Express (FedEx)

FDX9796

At Arrival Gate

LIMC
 RKSI
DATE: 2021-02-14
GATE:  -
GATE DEPARTURE: 23:29
TAKEOFF: 23:45
DATE: 2021-02-15
GATE:  -
LANDING: 10:47
GATE ARRIVAL: 10:55
FLIGHT DATA
Crew: 
Speed: 
500 kts
Altitude: 
41,132 ft
Stage Length: 
4,792.8 nm
Block Time: 
11.4 hrs
Flight Time: 
11 hrs
Fuel Used: 
135,314 lb
Cleared Route: LIMC SRN DESIP PEXUG LEGLO ORI OSKOR NEVNI MALUG NAVTI SOPAV BAVOK ABERO OGARA TOBLO ABUTO UNIGA MAKOD TALID UBONA BEPLU OKLOT RONUM UMSIS OLBEG RUTUB GEDNI AMUTI ST WGD TUSAB NOKLI DUBOS OLINU UP ZG OBATA TUGLA ATR BASPU EPOLI LANIN ODPUT LUKET UDATO RUGUS ARSAN ATRIK BALPI ABIGU ULRIP SUBOL ARMIK DZG AGAKO MADEV AGARO BUSAR GOMAL BURID GILAK SARIN TCH PIBIG SALMO OMKEN IKARA UGPEL VARMI FKG ADPET ESGIV DAKPA RIMDU BATUS LIKMI GOVSA JNQ GOBIN ATBUG DKO EGILO DUDIL MOSPA TOREL BAXOD UBSEV URDOG UXODI LUGVU UPSUR BIKUT GUVBA HUR SOTMU LADIX CG MUGLO OTBUL VAPGU MUDOT ORAVA UNSEK ALARA MAKNO NUNDU DOBGA POVAG SANKO OBDIS DONVO AGAVO RILRO GONAV BODOL REBIT RKSI
TRACK DATA
50,000 ft 1,000 kts
AIRCRAFT INFO AND CUMULATIVE STATS
Aircraft Type: 
B77LF
Registration: 
SELCAL: 
FRHQ
MSN/LN: 
37727 / 884
Total Flights: 
3
Total Block Time: 
25.7 hrs
Total Flight Time: 
25 hrs
Total Fuel Used: 
359,287 lb
DATALINK LOG | Newest first | Current as of: 2022-05-16 07:53:09
LABEL SEQUENCE CONTENT Dn/Up
QD353210:55 17.6▼ Dn
QC272610:47▼ Dn
2U4141RKSI 150030Z 32019KT 6000 BKN010 BKN020 01/M01 Q1011 WS R16 R34 NOSIG▲ Up
2S4141RKSI▼ Dn
2U3939RKSI 150030Z 32019KT 6000 BKN010 BKN020 01/M01 Q1011 WS R16 R34 NOSIG▲ Up
2S3939RKSI▼ Dn
QB264323:45▼ Dn
QA102823:29 153▼ Dn
A34919CLEARED TO RKSI VIA SRN L615 NEVNI MALUG NAVTI SOPAV T709 BAVOK ABERO OGARA Z860 TOBLO M55 ABUTO L749 RONUM N72 OLINU A102 UP R710 ZG G487 ATR A371 DZG N161 SARIN A368 FKG W188 GOVSA W66 DKO W69 HUR B339 LADIX W34 VAPGU W100 ORAVA W201 UNSEK A326 DONVO G597 AGAVO Y644 REBIT REBI1A . SQUAWK 0723.▲ Up
B34909LIMC RKSI FDX9796 N856FD ▼ Dn
A74629CLEARANCE AVAIL WITHIN 0:25 OF EDT▲ Up
B34629LIMC RKSI FDX9796 N856FD ▼ Dn
A74349CLEARANCE AVAIL WITHIN 0:25 OF EDT▲ Up
B34349LIMC RKSI FDX9796 N856FD ▼ Dn
2U4149RKSS 141300Z 31004KT 3000 BR NSC 04/00 Q1011 NOSIG▲ Up
2U4148LIMC 141320Z 24006KT 190V270 CAVOK 05/M06 Q1037 NOSIG▲ Up
2U4148RKSI 141330Z 28005KT 3500 HZ NSC 05/01 Q1011 NOSIG▲ Up
2S4147LIMC RKSI RKSS▼ Dn
A74046CLEARANCE AVAIL WITHIN 0:25 OF EDT▲ Up
B34046LIMC RKSI FDX9796 N856FD ▼ Dn
Q03945[LINK ACK]▲ Up
Q03945[LINK TEST]▼ Dn


AIRCRAFT HISTORY
FLIGHT DATE FLIGHT NO. ORIGIN DESTINATION CLEARED ROUTE BLOCK TIME FLIGHT TIME FUEL USED PILOT
2021-02-14FDX9796LIMC RKSI LIMC SRN DESIP PEXUG LEGLO ORI OSKOR NEVNI MALUG NAVTI SOPAV BAVOK ABERO OGARA TOBLO ABUTO UNIGA MAKOD TALID UBONA BEPLU OKLOT RONUM UMSIS OLBEG RUTUB GEDNI AMUTI ST WGD TUSAB NOKLI DUBOS OLINU UP ZG OBATA TUGLA ATR BASPU EPOLI LANIN ODPUT LUKET UDATO RUGUS ARSAN ATRIK BALPI ABIGU ULRIP SUBOL ARMIK DZG AGAKO MADEV AGARO BUSAR GOMAL BURID GILAK SARIN TCH PIBIG SALMO OMKEN IKARA UGPEL VARMI FKG ADPET ESGIV DAKPA RIMDU BATUS LIKMI GOVSA JNQ GOBIN ATBUG DKO EGILO DUDIL MOSPA TOREL BAXOD UBSEV URDOG UXODI LUGVU UPSUR BIKUT GUVBA HUR SOTMU LADIX CG MUGLO OTBUL VAPGU MUDOT ORAVA UNSEK ALARA MAKNO NUNDU DOBGA POVAG SANKO OBDIS DONVO AGAVO RILRO GONAV BODOL REBIT RKSI11.4 hrs11 hrs135,314 lbAllan Burek
2021-02-13FDX9796EHAM LIMC EHAM EDUPO NAPRO DEPAD AMOSU MISGO COL RIDSU ABUKA KRH EPIXU NATOR TITIX TRA DITON BASGO AKASU RIXUV LIMC1.5 hrs1.3 hrs18,330 lbAllan Burek
2021-02-12FDX9733RKSI EHAM RKSI BINIL ANSIM NOGON OLBIM AGAVO IKEKA SEBLI WEH FZ TEKAM HCH DOVIV VIDEL TEMAD DUMAP CG LADIX VYK PEGSO IDGIS REVSI BONLU ADBES VAGBI SUGDO EKETA GODON OMKAK LEBOM APOGO LUVES MIMOK YHD NIRUV OPULI YBL GOBIN JNQ GOVSA NUKTI HAM IRPEP DUBUV DUMAM FKG VARMI UGPEL IKARA OMKEN SALMO PIBIG TCH SARIN GILAK BURID GOMAL BUSAR AGARO MADEV AGAKO DZG ARMIK SUBOL ULRIP ABIGU BALPI ATRIK ARSAN RUGUS UDATO LUKET ODPUT LANIN EPOLI BASPU ATR TUGLA OBATA ZG UP BASKO LIDUS SUBED SL LOGMU ST INBAL NIBIM ALUGU BAKSU KEPED OSLAK ROKUB UBONA TALID MAKOD UNIGA ABUTO TOBLO OGARA PINUG ADOBU GORAT OTPES GONTU GRUDA UNDUK ASGUL TOMKO BINKA TORLO UDAXI FLD GEVNI LEGSA TIMIB KUBAB NUVEN TAGOB BERIM DOBAK EEL EHAM12.8 hrs12.7 hrs205,643 lbAllan Burek